sensor_id;sensor_type;location;lat;lon;timestamp;P1;durP1;ratioP1;P2;durP2;ratioP2
5014;SDS011;2526;51.060;4.228;2023-06-05T00:02:12;7.70;;;1.23;;
5014;SDS011;2526;51.060;4.228;2023-06-05T00:04:38;1.80;;;1.15;;
5014;SDS011;2526;51.060;4.228;2023-06-05T00:07:05;2.40;;;1.45;;
5014;SDS011;2526;51.060;4.228;2023-06-05T00:09:30;6.22;;;1.08;;
5014;SDS011;2526;51.060;4.228;2023-06-05T00:11:56;1.67;;;0.98;;
5014;SDS011;2526;51.060;4.228;2023-06-05T00:14:21;3.67;;;1.63;;
5014;SDS011;2526;51.060;4.228;2023-06-05T00:16:47;7.22;;;1.65;;
5014;SDS011;2526;51.060;4.228;2023-06-05T00:19:12;2.05;;;1.02;;
5014;SDS011;2526;51.060;4.228;2023-06-05T00:21:38;4.85;;;1.27;;
5014;SDS011;2526;51.060;4.228;2023-06-05T00:24:03;1.10;;;0.93;;
5014;SDS011;2526;51.060;4.228;2023-06-05T00:26:29;2.63;;;1.60;;
5014;SDS011;2526;51.060;4.228;2023-06-05T00:28:54;1.73;;;0.98;;
5014;SDS011;2526;51.060;4.228;2023-06-05T00:31:20;2.40;;;1.40;;
5014;SDS011;2526;51.060;4.228;2023-06-05T00:33:47;1.50;;;1.05;;
5014;SDS011;2526;51.060;4.228;2023-06-05T00:36:13;3.30;;;1.50;;
5014;SDS011;2526;51.060;4.228;2023-06-05T00:38:38;3.22;;;1.73;;
5014;SDS011;2526;51.060;4.228;2023-06-05T00:41:03;2.50;;;1.33;;
5014;SDS011;2526;51.060;4.228;2023-06-05T00:43:29;2.25;;;1.25;;
5014;SDS011;2526;51.060;4.228;2023-06-05T00:46:03;1.98;;;1.15;;
5014;SDS011;2526;51.060;4.228;2023-06-05T00:48:29;1.48;;;1.20;;
5014;SDS011;2526;51.060;4.228;2023-06-05T00:50:56;2.92;;;1.90;;
5014;SDS011;2526;51.060;4.228;2023-06-05T00:53:22;6.40;;;1.50;;
5014;SDS011;2526;51.060;4.228;2023-06-05T00:55:48;3.83;;;1.30;;
5014;SDS011;2526;51.060;4.228;2023-06-05T00:58:13;2.42;;;0.95;;
5014;SDS011;2526;51.060;4.228;2023-06-05T01:00:40;9.23;;;1.63;;
5014;SDS011;2526;51.060;4.228;2023-06-05T01:03:06;3.08;;;1.35;;
5014;SDS011;2526;51.060;4.228;2023-06-05T01:05:33;2.20;;;1.67;;
5014;SDS011;2526;51.060;4.228;2023-06-05T01:07:59;2.92;;;1.33;;
5014;SDS011;2526;51.060;4.228;2023-06-05T01:10:28;2.63;;;1.63;;
5014;SDS011;2526;51.060;4.228;2023-06-05T01:15:37;1.52;;;0.90;;
5014;SDS011;2526;51.060;4.228;2023-06-05T01:18:03;1.60;;;1.40;;
5014;SDS011;2526;51.060;4.228;2023-06-05T01:20:33;2.67;;;1.38;;
5014;SDS011;2526;51.060;4.228;2023-06-05T01:22:59;2.60;;;1.55;;
5014;SDS011;2526;51.060;4.228;2023-06-05T01:25:25;5.00;;;1.98;;
5014;SDS011;2526;51.060;4.228;2023-06-05T01:27:54;2.28;;;1.50;;
5014;SDS011;2526;51.060;4.228;2023-06-05T01:30:25;2.25;;;1.25;;
5014;SDS011;2526;51.060;4.228;2023-06-05T01:35:19;3.65;;;1.40;;
5014;SDS011;2526;51.060;4.228;2023-06-05T01:37:46;1.85;;;1.13;;
5014;SDS011;2526;51.060;4.228;2023-06-05T01:40:14;1.95;;;1.02;;
5014;SDS011;2526;51.060;4.228;2023-06-05T01:42:40;2.42;;;1.38;;
5014;SDS011;2526;51.060;4.228;2023-06-05T01:45:07;2.92;;;1.92;;
5014;SDS011;2526;51.060;4.228;2023-06-05T01:47:34;1.45;;;1.35;;
5014;SDS011;2526;51.060;4.228;2023-06-05T01:50:00;4.47;;;1.60;;
5014;SDS011;2526;51.060;4.228;2023-06-05T01:52:25;1.77;;;1.25;;
5014;SDS011;2526;51.060;4.228;2023-06-05T01:54:51;2.40;;;1.17;;
5014;SDS011;2526;51.060;4.228;2023-06-05T01:57:18;2.13;;;1.33;;
5014;SDS011;2526;51.060;4.228;2023-06-05T01:59:43;3.13;;;1.88;;
5014;SDS011;2526;51.060;4.228;2023-06-05T02:02:11;2.60;;;1.23;;
5014;SDS011;2526;51.060;4.228;2023-06-05T02:04:37;1.77;;;1.20;;
5014;SDS011;2526;51.060;4.228;2023-06-05T02:07:37;2.95;;;1.40;;
5014;SDS011;2526;51.060;4.228;2023-06-05T02:10:33;7.18;;;1.83;;
5014;SDS011;2526;51.060;4.228;2023-06-05T02:13:25;1.92;;;1.25;;
5014;SDS011;2526;51.060;4.228;2023-06-05T02:16:24;3.92;;;2.03;;
5014;SDS011;2526;51.060;4.228;2023-06-05T02:19:22;2.17;;;1.30;;
5014;SDS011;2526;51.060;4.228;2023-06-05T02:24:56;4.10;;;1.60;;
5014;SDS011;2526;51.060;4.228;2023-06-05T02:27:47;6.97;;;1.45;;
5014;SDS011;2526;51.060;4.228;2023-06-05T02:30:39;5.32;;;1.55;;
5014;SDS011;2526;51.060;4.228;2023-06-05T02:33:34;1.80;;;1.08;;
5014;SDS011;2526;51.060;4.228;2023-06-05T02:36:28;3.22;;;1.38;;
5014;SDS011;2526;51.060;4.228;2023-06-05T02:39:23;4.20;;;0.95;;
5014;SDS011;2526;51.060;4.228;2023-06-05T02:41:48;8.52;;;1.25;;
5014;SDS011;2526;51.060;4.228;2023-06-05T02:44:14;3.00;;;2.08;;
5014;SDS011;2526;51.060;4.228;2023-06-05T02:46:40;1.42;;;0.85;;
5014;SDS011;2526;51.060;4.228;2023-06-05T02:49:05;5.10;;;1.33;;
5014;SDS011;2526;51.060;4.228;2023-06-05T02:51:31;3.72;;;2.25;;
5014;SDS011;2526;51.060;4.228;2023-06-05T02:53:56;2.28;;;1.63;;
5014;SDS011;2526;51.060;4.228;2023-06-05T02:56:22;5.53;;;1.55;;
5014;SDS011;2526;51.060;4.228;2023-06-05T02:58:51;2.60;;;1.15;;
5014;SDS011;2526;51.060;4.228;2023-06-05T03:01:17;1.67;;;1.52;;
5014;SDS011;2526;51.060;4.228;2023-06-05T03:03:42;1.63;;;1.52;;
5014;SDS011;2526;51.060;4.228;2023-06-05T03:06:08;3.78;;;1.80;;
5014;SDS011;2526;51.060;4.228;2023-06-05T03:08:34;3.72;;;1.25;;
5014;SDS011;2526;51.060;4.228;2023-06-05T03:11:00;1.67;;;1.15;;
5014;SDS011;2526;51.060;4.228;2023-06-05T03:13:26;1.65;;;1.25;;
5014;SDS011;2526;51.060;4.228;2023-06-05T03:15:51;3.10;;;1.38;;
5014;SDS011;2526;51.060;4.228;2023-06-05T03:18:24;3.33;;;2.10;;
5014;SDS011;2526;51.060;4.228;2023-06-05T03:20:50;3.00;;;1.90;;
5014;SDS011;2526;51.060;4.228;2023-06-05T03:23:21;2.42;;;1.83;;
5014;SDS011;2526;51.060;4.228;2023-06-05T03:25:46;3.90;;;1.65;;
5014;SDS011;2526;51.060;4.228;2023-06-05T03:28:12;2.58;;;1.40;;
5014;SDS011;2526;51.060;4.228;2023-06-05T03:30:37;7.47;;;2.03;;
5014;SDS011;2526;51.060;4.228;2023-06-05T03:33:03;7.28;;;1.48;;
5014;SDS011;2526;51.060;4.228;2023-06-05T03:35:28;1.27;;;1.17;;
5014;SDS011;2526;51.060;4.228;2023-06-05T03:37:54;2.60;;;1.30;;
5014;SDS011;2526;51.060;4.228;2023-06-05T03:40:20;2.13;;;1.63;;
5014;SDS011;2526;51.060;4.228;2023-06-05T03:42:45;1.88;;;1.52;;
5014;SDS011;2526;51.060;4.228;2023-06-05T03:45:11;2.05;;;1.42;;
5014;SDS011;2526;51.060;4.228;2023-06-05T03:47:38;3.03;;;1.23;;
5014;SDS011;2526;51.060;4.228;2023-06-05T03:50:04;3.40;;;1.63;;
5014;SDS011;2526;51.060;4.228;2023-06-05T03:52:30;2.47;;;1.40;;
5014;SDS011;2526;51.060;4.228;2023-06-05T03:54:55;4.03;;;1.75;;
5014;SDS011;2526;51.060;4.228;2023-06-05T03:57:21;3.70;;;2.33;;
5014;SDS011;2526;51.060;4.228;2023-06-05T03:59:47;2.80;;;1.75;;
5014;SDS011;2526;51.060;4.228;2023-06-05T04:02:13;1.10;;;1.00;;
5014;SDS011;2526;51.060;4.228;2023-06-05T04:04:39;1.98;;;1.38;;
5014;SDS011;2526;51.060;4.228;2023-06-05T04:07:05;4.72;;;1.90;;
5014;SDS011;2526;51.060;4.228;2023-06-05T04:09:31;2.25;;;1.50;;
5014;SDS011;2526;51.060;4.228;2023-06-05T04:11:57;5.88;;;2.17;;
5014;SDS011;2526;51.060;4.228;2023-06-05T04:14:23;2.30;;;1.38;;
5014;SDS011;2526;51.060;4.228;2023-06-05T04:16:48;4.47;;;1.73;;
5014;SDS011;2526;51.060;4.228;2023-06-05T04:19:14;3.20;;;2.42;;
5014;SDS011;2526;51.060;4.228;2023-06-05T04:21:39;3.08;;;2.10;;
5014;SDS011;2526;51.060;4.228;2023-06-05T04:24:06;4.80;;;2.00;;
5014;SDS011;2526;51.060;4.228;2023-06-05T04:26:36;4.43;;;2.35;;
5014;SDS011;2526;51.060;4.228;2023-06-05T04:29:03;2.67;;;2.08;;
5014;SDS011;2526;51.060;4.228;2023-06-05T04:31:30;3.72;;;2.05;;
5014;SDS011;2526;51.060;4.228;2023-06-05T04:33:55;3.90;;;2.30;;
5014;SDS011;2526;51.060;4.228;2023-06-05T04:36:21;9.27;;;1.95;;
5014;SDS011;2526;51.060;4.228;2023-06-05T04:38:47;3.00;;;1.92;;
5014;SDS011;2526;51.060;4.228;2023-06-05T04:41:12;5.00;;;1.90;;
5014;SDS011;2526;51.060;4.228;2023-06-05T04:43:39;4.05;;;3.55;;
5014;SDS011;2526;51.060;4.228;2023-06-05T04:46:04;3.30;;;1.85;;
5014;SDS011;2526;51.060;4.228;2023-06-05T04:48:30;3.30;;;1.88;;
5014;SDS011;2526;51.060;4.228;2023-06-05T04:50:55;2.67;;;1.98;;
5014;SDS011;2526;51.060;4.228;2023-06-05T04:53:23;3.78;;;2.45;;
5014;SDS011;2526;51.060;4.228;2023-06-05T04:55:49;4.50;;;2.30;;
5014;SDS011;2526;51.060;4.228;2023-06-05T04:58:15;4.80;;;3.17;;
5014;SDS011;2526;51.060;4.228;2023-06-05T05:00:41;3.67;;;2.30;;
5014;SDS011;2526;51.060;4.228;2023-06-05T05:03:09;4.18;;;2.67;;
5014;SDS011;2526;51.060;4.228;2023-06-05T05:05:36;5.10;;;2.70;;
5014;SDS011;2526;51.060;4.228;2023-06-05T05:08:02;3.70;;;2.08;;
5014;SDS011;2526;51.060;4.228;2023-06-05T05:10:28;4.28;;;2.20;;
5014;SDS011;2526;51.060;4.228;2023-06-05T05:12:53;8.70;;;2.70;;
5014;SDS011;2526;51.060;4.228;2023-06-05T05:15:19;5.72;;;2.22;;
5014;SDS011;2526;51.060;4.228;2023-06-05T05:17:45;3.78;;;2.50;;
5014;SDS011;2526;51.060;4.228;2023-06-05T05:20:11;3.90;;;2.55;;
5014;SDS011;2526;51.060;4.228;2023-06-05T05:22:36;2.47;;;1.85;;
5014;SDS011;2526;51.060;4.228;2023-06-05T05:25:02;6.82;;;3.70;;
5014;SDS011;2526;51.060;4.228;2023-06-05T05:27:28;7.88;;;4.00;;
5014;SDS011;2526;51.060;4.228;2023-06-05T05:29:53;7.90;;;2.95;;
5014;SDS011;2526;51.060;4.228;2023-06-05T05:32:19;6.05;;;2.58;;
5014;SDS011;2526;51.060;4.228;2023-06-05T05:34:45;2.03;;;1.83;;
5014;SDS011;2526;51.060;4.228;2023-06-05T05:37:11;5.70;;;2.67;;
5014;SDS011;2526;51.060;4.228;2023-06-05T05:39:36;4.45;;;2.47;;
5014;SDS011;2526;51.060;4.228;2023-06-05T05:42:02;3.15;;;2.85;;
5014;SDS011;2526;51.060;4.228;2023-06-05T05:44:28;4.65;;;2.63;;
5014;SDS011;2526;51.060;4.228;2023-06-05T05:46:53;3.75;;;2.70;;
5014;SDS011;2526;51.060;4.228;2023-06-05T05:49:18;6.40;;;2.17;;
5014;SDS011;2526;51.060;4.228;2023-06-05T05:51:44;3.92;;;2.45;;
5014;SDS011;2526;51.060;4.228;2023-06-05T05:54:10;5.05;;;2.47;;
5014;SDS011;2526;51.060;4.228;2023-06-05T05:56:35;3.55;;;1.80;;
5014;SDS011;2526;51.060;4.228;2023-06-05T05:59:02;4.03;;;2.10;;
5014;SDS011;2526;51.060;4.228;2023-06-05T06:01:28;4.28;;;1.95;;
5014;SDS011;2526;51.060;4.228;2023-06-05T06:03:53;2.80;;;2.00;;
5014;SDS011;2526;51.060;4.228;2023-06-05T06:06:19;4.38;;;2.42;;
5014;SDS011;2526;51.060;4.228;2023-06-05T06:08:45;3.15;;;1.67;;
5014;SDS011;2526;51.060;4.228;2023-06-05T06:11:10;4.65;;;2.30;;
5014;SDS011;2526;51.060;4.228;2023-06-05T06:13:36;3.88;;;2.38;;
5014;SDS011;2526;51.060;4.228;2023-06-05T06:16:02;3.05;;;2.22;;
5014;SDS011;2526;51.060;4.228;2023-06-05T06:18:29;3.50;;;2.05;;
5014;SDS011;2526;51.060;4.228;2023-06-05T06:20:54;5.43;;;2.75;;
5014;SDS011;2526;51.060;4.228;2023-06-05T06:23:20;3.05;;;2.35;;
5014;SDS011;2526;51.060;4.228;2023-06-05T06:25:46;4.20;;;2.92;;
5014;SDS011;2526;51.060;4.228;2023-06-05T06:28:11;5.07;;;2.60;;
5014;SDS011;2526;51.060;4.228;2023-06-05T06:30:37;5.80;;;3.45;;
5014;SDS011;2526;51.060;4.228;2023-06-05T06:33:02;2.97;;;2.60;;
5014;SDS011;2526;51.060;4.228;2023-06-05T06:35:29;7.78;;;2.92;;
5014;SDS011;2526;51.060;4.228;2023-06-05T06:37:57;3.80;;;2.92;;
5014;SDS011;2526;51.060;4.228;2023-06-05T06:40:23;4.45;;;2.55;;
5014;SDS011;2526;51.060;4.228;2023-06-05T06:42:49;7.57;;;2.55;;
5014;SDS011;2526;51.060;4.228;2023-06-05T06:45:14;5.13;;;2.95;;
5014;SDS011;2526;51.060;4.228;2023-06-05T06:47:40;6.88;;;2.90;;
5014;SDS011;2526;51.060;4.228;2023-06-05T06:50:06;5.88;;;2.33;;
5014;SDS011;2526;51.060;4.228;2023-06-05T06:52:32;5.05;;;2.78;;
5014;SDS011;2526;51.060;4.228;2023-06-05T06:54:57;3.85;;;3.05;;
5014;SDS011;2526;51.060;4.228;2023-06-05T06:57:23;2.80;;;2.53;;
5014;SDS011;2526;51.060;4.228;2023-06-05T06:59:48;5.18;;;2.88;;
5014;SDS011;2526;51.060;4.228;2023-06-05T07:02:15;5.00;;;2.97;;
5014;SDS011;2526;51.060;4.228;2023-06-05T07:04:41;5.57;;;3.05;;
5014;SDS011;2526;51.060;4.228;2023-06-05T07:07:08;8.95;;;3.88;;
5014;SDS011;2526;51.060;4.228;2023-06-05T07:09:34;5.43;;;3.13;;
5014;SDS011;2526;51.060;4.228;2023-06-05T07:12:00;4.15;;;3.15;;
5014;SDS011;2526;51.060;4.228;2023-06-05T07:14:30;4.55;;;2.40;;
5014;SDS011;2526;51.060;4.228;2023-06-05T07:16:55;12.10;;;4.63;;
5014;SDS011;2526;51.060;4.228;2023-06-05T07:19:24;2.95;;;2.35;;
5014;SDS011;2526;51.060;4.228;2023-06-05T07:21:50;10.88;;;3.53;;
5014;SDS011;2526;51.060;4.228;2023-06-05T07:24:15;5.15;;;3.60;;
5014;SDS011;2526;51.060;4.228;2023-06-05T07:26:43;7.18;;;2.97;;
5014;SDS011;2526;51.060;4.228;2023-06-05T07:29:09;4.47;;;2.90;;
5014;SDS011;2526;51.060;4.228;2023-06-05T07:31:35;5.20;;;3.28;;
5014;SDS011;2526;51.060;4.228;2023-06-05T07:34:01;5.05;;;3.13;;
5014;SDS011;2526;51.060;4.228;2023-06-05T07:36:28;4.20;;;2.47;;
5014;SDS011;2526;51.060;4.228;2023-06-05T07:38:53;13.88;;;4.07;;
5014;SDS011;2526;51.060;4.228;2023-06-05T07:41:19;10.88;;;3.83;;
5014;SDS011;2526;51.060;4.228;2023-06-05T07:43:44;6.15;;;2.80;;
5014;SDS011;2526;51.060;4.228;2023-06-05T07:46:10;5.55;;;3.58;;
5014;SDS011;2526;51.060;4.228;2023-06-05T07:48:35;6.05;;;3.90;;
5014;SDS011;2526;51.060;4.228;2023-06-05T07:51:00;5.03;;;3.35;;
5014;SDS011;2526;51.060;4.228;2023-06-05T07:53:26;7.22;;;2.75;;
5014;SDS011;2526;51.060;4.228;2023-06-05T07:55:51;9.18;;;3.88;;
5014;SDS011;2526;51.060;4.228;2023-06-05T07:58:18;4.40;;;2.85;;
5014;SDS011;2526;51.060;4.228;2023-06-05T08:00:43;6.43;;;3.72;;
5014;SDS011;2526;51.060;4.228;2023-06-05T08:03:15;6.55;;;4.38;;
5014;SDS011;2526;51.060;4.228;2023-06-05T08:05:46;13.85;;;4.35;;
5014;SDS011;2526;51.060;4.228;2023-06-05T08:08:11;6.05;;;4.15;;
5014;SDS011;2526;51.060;4.228;2023-06-05T08:10:36;7.22;;;4.15;;
5014;SDS011;2526;51.060;4.228;2023-06-05T08:13:02;4.05;;;2.70;;
5014;SDS011;2526;51.060;4.228;2023-06-05T08:15:28;9.77;;;3.47;;
5014;SDS011;2526;51.060;4.228;2023-06-05T08:17:53;3.33;;;1.85;;
5014;SDS011;2526;51.060;4.228;2023-06-05T08:20:19;5.18;;;3.03;;
5014;SDS011;2526;51.060;4.228;2023-06-05T08:22:45;5.38;;;3.38;;
5014;SDS011;2526;51.060;4.228;2023-06-05T08:25:10;5.15;;;3.50;;
5014;SDS011;2526;51.060;4.228;2023-06-05T08:27:36;6.32;;;3.03;;
5014;SDS011;2526;51.060;4.228;2023-06-05T08:30:02;11.40;;;3.55;;
5014;SDS011;2526;51.060;4.228;2023-06-05T08:32:28;3.83;;;2.38;;
5014;SDS011;2526;51.060;4.228;2023-06-05T08:34:54;7.80;;;3.47;;
5014;SDS011;2526;51.060;4.228;2023-06-05T08:37:20;8.02;;;3.40;;
5014;SDS011;2526;51.060;4.228;2023-06-05T08:39:45;5.65;;;3.10;;
5014;SDS011;2526;51.060;4.228;2023-06-05T08:42:12;5.53;;;2.47;;
5014;SDS011;2526;51.060;4.228;2023-06-05T08:44:40;3.88;;;3.00;;
5014;SDS011;2526;51.060;4.228;2023-06-05T08:47:06;7.40;;;3.08;;
5014;SDS011;2526;51.060;4.228;2023-06-05T08:49:33;4.78;;;2.20;;
5014;SDS011;2526;51.060;4.228;2023-06-05T08:52:03;6.95;;;2.80;;
5014;SDS011;2526;51.060;4.228;2023-06-05T08:54:39;5.97;;;3.80;;
5014;SDS011;2526;51.060;4.228;2023-06-05T08:57:07;5.03;;;3.22;;
5014;SDS011;2526;51.060;4.228;2023-06-05T08:59:33;9.23;;;3.53;;
5014;SDS011;2526;51.060;4.228;2023-06-05T09:01:59;6.95;;;2.67;;
5014;SDS011;2526;51.060;4.228;2023-06-05T09:04:24;5.72;;;2.63;;
5014;SDS011;2526;51.060;4.228;2023-06-05T09:06:51;5.00;;;2.72;;
5014;SDS011;2526;51.060;4.228;2023-06-05T09:09:19;5.10;;;3.13;;
5014;SDS011;2526;51.060;4.228;2023-06-05T09:11:45;7.43;;;3.65;;
5014;SDS011;2526;51.060;4.228;2023-06-05T09:14:11;3.28;;;2.25;;
5014;SDS011;2526;51.060;4.228;2023-06-05T09:16:39;11.18;;;3.30;;
5014;SDS011;2526;51.060;4.228;2023-06-05T09:19:06;5.22;;;2.72;;
5014;SDS011;2526;51.060;4.228;2023-06-05T09:21:31;4.95;;;3.55;;
5014;SDS011;2526;51.060;4.228;2023-06-05T09:26:55;7.45;;;3.70;;
5014;SDS011;2526;51.060;4.228;2023-06-05T09:29:24;6.90;;;3.17;;
5014;SDS011;2526;51.060;4.228;2023-06-05T09:31:50;8.25;;;2.80;;
5014;SDS011;2526;51.060;4.228;2023-06-05T09:37:11;5.75;;;3.10;;
5014;SDS011;2526;51.060;4.228;2023-06-05T09:39:41;7.55;;;3.85;;
5014;SDS011;2526;51.060;4.228;2023-06-05T09:42:08;4.53;;;2.15;;
5014;SDS011;2526;51.060;4.228;2023-06-05T09:44:35;8.93;;;3.90;;
5014;SDS011;2526;51.060;4.228;2023-06-05T09:47:07;4.50;;;3.15;;
5014;SDS011;2526;51.060;4.228;2023-06-05T09:52:07;5.88;;;3.50;;
5014;SDS011;2526;51.060;4.228;2023-06-05T09:54:32;5.03;;;2.85;;
5014;SDS011;2526;51.060;4.228;2023-06-05T09:56:59;5.57;;;3.10;;
5014;SDS011;2526;51.060;4.228;2023-06-05T09:59:26;5.15;;;2.95;;
5014;SDS011;2526;51.060;4.228;2023-06-05T10:01:53;5.55;;;2.45;;
5014;SDS011;2526;51.060;4.228;2023-06-05T10:04:20;5.55;;;2.20;;
5014;SDS011;2526;51.060;4.228;2023-06-05T10:06:47;3.67;;;2.60;;
5014;SDS011;2526;51.060;4.228;2023-06-05T10:09:13;3.33;;;2.95;;
5014;SDS011;2526;51.060;4.228;2023-06-05T10:11:40;10.88;;;2.35;;
5014;SDS011;2526;51.060;4.228;2023-06-05T10:14:06;4.35;;;2.15;;
5014;SDS011;2526;51.060;4.228;2023-06-05T10:16:34;6.25;;;3.05;;
5014;SDS011;2526;51.060;4.228;2023-06-05T10:18:59;3.80;;;2.45;;
5014;SDS011;2526;51.060;4.228;2023-06-05T10:21:25;5.93;;;2.97;;
5014;SDS011;2526;51.060;4.228;2023-06-05T10:23:55;6.65;;;3.78;;
5014;SDS011;2526;51.060;4.228;2023-06-05T10:26:37;4.32;;;1.80;;
5014;SDS011;2526;51.060;4.228;2023-06-05T10:31:45;4.68;;;2.28;;
5014;SDS011;2526;51.060;4.228;2023-06-05T10:39:15;6.38;;;3.13;;
5014;SDS011;2526;51.060;4.228;2023-06-05T10:41:42;9.77;;;2.47;;
5014;SDS011;2526;51.060;4.228;2023-06-05T10:44:08;3.03;;;2.22;;
5014;SDS011;2526;51.060;4.228;2023-06-05T10:46:37;7.90;;;3.13;;
5014;SDS011;2526;51.060;4.228;2023-06-05T10:49:06;3.70;;;2.60;;
5014;SDS011;2526;51.060;4.228;2023-06-05T10:51:37;4.72;;;3.22;;
5014;SDS011;2526;51.060;4.228;2023-06-05T10:54:03;4.22;;;1.92;;
5014;SDS011;2526;51.060;4.228;2023-06-05T10:59:13;5.10;;;2.88;;
5014;SDS011;2526;51.060;4.228;2023-06-05T11:01:40;4.43;;;2.47;;
5014;SDS011;2526;51.060;4.228;2023-06-05T11:04:05;4.97;;;2.58;;
5014;SDS011;2526;51.060;4.228;2023-06-05T11:06:30;10.02;;;2.80;;
5014;SDS011;2526;51.060;4.228;2023-06-05T11:09:13;4.32;;;2.80;;
5014;SDS011;2526;51.060;4.228;2023-06-05T11:12:12;6.82;;;2.88;;
5014;SDS011;2526;51.060;4.228;2023-06-05T11:14:46;6.28;;;2.65;;
5014;SDS011;2526;51.060;4.228;2023-06-05T11:17:30;5.00;;;2.63;;
5014;SDS011;2526;51.060;4.228;2023-06-05T11:19:57;3.20;;;2.13;;
5014;SDS011;2526;51.060;4.228;2023-06-05T11:22:22;4.32;;;3.13;;
5014;SDS011;2526;51.060;4.228;2023-06-05T11:27:45;6.13;;;3.00;;
5014;SDS011;2526;51.060;4.228;2023-06-05T11:30:14;5.88;;;2.55;;
5014;SDS011;2526;51.060;4.228;2023-06-05T11:32:43;7.22;;;3.72;;
5014;SDS011;2526;51.060;4.228;2023-06-05T11:35:09;3.38;;;2.30;;
5014;SDS011;2526;51.060;4.228;2023-06-05T11:37:34;2.83;;;2.30;;
5014;SDS011;2526;51.060;4.228;2023-06-05T11:40:04;5.60;;;3.08;;
5014;SDS011;2526;51.060;4.228;2023-06-05T11:42:36;4.65;;;2.65;;
5014;SDS011;2526;51.060;4.228;2023-06-05T11:45:09;4.35;;;2.38;;
5014;SDS011;2526;51.060;4.228;2023-06-05T11:47:35;4.97;;;2.80;;
5014;SDS011;2526;51.060;4.228;2023-06-05T11:50:10;5.75;;;2.40;;
5014;SDS011;2526;51.060;4.228;2023-06-05T11:52:36;4.68;;;1.92;;
5014;SDS011;2526;51.060;4.228;2023-06-05T11:55:15;3.97;;;2.40;;
5014;SDS011;2526;51.060;4.228;2023-06-05T11:57:44;4.53;;;2.50;;
5014;SDS011;2526;51.060;4.228;2023-06-05T12:00:10;6.25;;;2.30;;
5014;SDS011;2526;51.060;4.228;2023-06-05T12:02:37;4.13;;;2.03;;
5014;SDS011;2526;51.060;4.228;2023-06-05T12:05:02;5.30;;;2.70;;
5014;SDS011;2526;51.060;4.228;2023-06-05T12:07:28;6.70;;;3.45;;
5014;SDS011;2526;51.060;4.228;2023-06-05T12:09:54;5.95;;;3.45;;
5014;SDS011;2526;51.060;4.228;2023-06-05T12:12:20;4.32;;;2.35;;
5014;SDS011;2526;51.060;4.228;2023-06-05T12:14:45;2.30;;;1.90;;
5014;SDS011;2526;51.060;4.228;2023-06-05T12:17:11;4.82;;;3.05;;
5014;SDS011;2526;51.060;4.228;2023-06-05T12:19:37;3.65;;;2.65;;
5014;SDS011;2526;51.060;4.228;2023-06-05T12:22:06;8.15;;;2.20;;
5014;SDS011;2526;51.060;4.228;2023-06-05T12:24:32;3.55;;;2.38;;
5014;SDS011;2526;51.060;4.228;2023-06-05T12:27:01;8.95;;;2.28;;
5014;SDS011;2526;51.060;4.228;2023-06-05T12:29:32;11.55;;;2.70;;
5014;SDS011;2526;51.060;4.228;2023-06-05T12:31:59;3.35;;;3.00;;
5014;SDS011;2526;51.060;4.228;2023-06-05T12:34:37;8.52;;;2.50;;
5014;SDS011;2526;51.060;4.228;2023-06-05T12:37:03;6.32;;;2.70;;
5014;SDS011;2526;51.060;4.228;2023-06-05T12:39:32;6.57;;;2.65;;
5014;SDS011;2526;51.060;4.228;2023-06-05T12:41:58;3.88;;;2.42;;
5014;SDS011;2526;51.060;4.228;2023-06-05T12:44:24;6.63;;;2.42;;
5014;SDS011;2526;51.060;4.228;2023-06-05T12:46:49;9.00;;;2.80;;
5014;SDS011;2526;51.060;4.228;2023-06-05T12:49:15;4.47;;;2.40;;
5014;SDS011;2526;51.060;4.228;2023-06-05T12:51:40;17.52;;;3.35;;
5014;SDS011;2526;51.060;4.228;2023-06-05T12:54:05;3.13;;;1.92;;
5014;SDS011;2526;51.060;4.228;2023-06-05T12:57:04;5.60;;;2.63;;
5014;SDS011;2526;51.060;4.228;2023-06-05T12:59:30;8.65;;;2.83;;
5014;SDS011;2526;51.060;4.228;2023-06-05T13:01:56;6.00;;;2.00;;
5014;SDS011;2526;51.060;4.228;2023-06-05T13:04:21;7.50;;;2.80;;
5014;SDS011;2526;51.060;4.228;2023-06-05T13:06:47;6.57;;;2.10;;
5014;SDS011;2526;51.060;4.228;2023-06-05T13:09:12;5.00;;;2.80;;
5014;SDS011;2526;51.060;4.228;2023-06-05T13:11:38;4.43;;;2.30;;
5014;SDS011;2526;51.060;4.228;2023-06-05T13:14:03;4.15;;;2.03;;
5014;SDS011;2526;51.060;4.228;2023-06-05T13:16:29;5.18;;;2.25;;
5014;SDS011;2526;51.060;4.228;2023-06-05T13:18:54;3.97;;;2.08;;
5014;SDS011;2526;51.060;4.228;2023-06-05T13:21:21;4.90;;;2.80;;
5014;SDS011;2526;51.060;4.228;2023-06-05T13:23:46;1.33;;;1.20;;
5014;SDS011;2526;51.060;4.228;2023-06-05T13:26:12;11.18;;;2.70;;
5014;SDS011;2526;51.060;4.228;2023-06-05T13:28:37;2.83;;;2.10;;
5014;SDS011;2526;51.060;4.228;2023-06-05T13:31:02;3.38;;;2.10;;
5014;SDS011;2526;51.060;4.228;2023-06-05T13:33:29;2.72;;;1.48;;
5014;SDS011;2526;51.060;4.228;2023-06-05T13:35:54;3.80;;;2.10;;
5014;SDS011;2526;51.060;4.228;2023-06-05T13:38:20;6.43;;;2.78;;
5014;SDS011;2526;51.060;4.228;2023-06-05T13:40:46;3.25;;;1.73;;
5014;SDS011;2526;51.060;4.228;2023-06-05T13:43:15;4.13;;;1.83;;
5014;SDS011;2526;51.060;4.228;2023-06-05T13:45:41;6.00;;;2.13;;
5014;SDS011;2526;51.060;4.228;2023-06-05T13:48:07;2.83;;;1.70;;
5014;SDS011;2526;51.060;4.228;2023-06-05T13:50:32;3.22;;;1.63;;
5014;SDS011;2526;51.060;4.228;2023-06-05T13:52:58;4.47;;;2.10;;
5014;SDS011;2526;51.060;4.228;2023-06-05T13:55:24;2.60;;;1.65;;
5014;SDS011;2526;51.060;4.228;2023-06-05T13:57:49;2.88;;;1.58;;
5014;SDS011;2526;51.060;4.228;2023-06-05T14:00:15;3.88;;;1.98;;
5014;SDS011;2526;51.060;4.228;2023-06-05T14:02:40;4.30;;;2.72;;
5014;SDS011;2526;51.060;4.228;2023-06-05T14:05:37;2.38;;;1.52;;
5014;SDS011;2526;51.060;4.228;2023-06-05T14:08:35;1.35;;;1.10;;
5014;SDS011;2526;51.060;4.228;2023-06-05T14:11:13;3.63;;;2.72;;
5014;SDS011;2526;51.060;4.228;2023-06-05T14:14:06;3.63;;;1.70;;
5014;SDS011;2526;51.060;4.228;2023-06-05T14:16:56;2.15;;;1.63;;
5014;SDS011;2526;51.060;4.228;2023-06-05T14:19:43;2.72;;;1.50;;
5014;SDS011;2526;51.060;4.228;2023-06-05T14:22:37;2.97;;;1.20;;
5014;SDS011;2526;51.060;4.228;2023-06-05T14:25:23;2.17;;;1.65;;
5014;SDS011;2526;51.060;4.228;2023-06-05T14:28:09;2.25;;;1.50;;
5014;SDS011;2526;51.060;4.228;2023-06-05T14:31:05;3.88;;;1.55;;
5014;SDS011;2526;51.060;4.228;2023-06-05T14:33:54;3.20;;;1.10;;
5014;SDS011;2526;51.060;4.228;2023-06-05T14:36:50;2.53;;;1.27;;
5014;SDS011;2526;51.060;4.228;2023-06-05T14:39:38;3.65;;;1.70;;
5014;SDS011;2526;51.060;4.228;2023-06-05T14:42:04;2.65;;;1.30;;
5014;SDS011;2526;51.060;4.228;2023-06-05T14:44:30;1.23;;;1.05;;
5014;SDS011;2526;51.060;4.228;2023-06-05T14:46:55;5.35;;;1.42;;
5014;SDS011;2526;51.060;4.228;2023-06-05T14:49:21;3.25;;;1.85;;
5014;SDS011;2526;51.060;4.228;2023-06-05T14:51:47;4.85;;;1.80;;
5014;SDS011;2526;51.060;4.228;2023-06-05T14:54:12;2.72;;;1.48;;
5014;SDS011;2526;51.060;4.228;2023-06-05T14:56:38;3.75;;;1.33;;
5014;SDS011;2526;51.060;4.228;2023-06-05T14:59:04;2.50;;;1.25;;
5014;SDS011;2526;51.060;4.228;2023-06-05T15:01:29;2.92;;;1.35;;
5014;SDS011;2526;51.060;4.228;2023-06-05T15:03:54;10.30;;;2.30;;
5014;SDS011;2526;51.060;4.228;2023-06-05T15:06:20;3.95;;;1.40;;
5014;SDS011;2526;51.060;4.228;2023-06-05T15:08:45;3.55;;;1.90;;
5014;SDS011;2526;51.060;4.228;2023-06-05T15:11:11;5.75;;;1.60;;
5014;SDS011;2526;51.060;4.228;2023-06-05T15:13:36;4.45;;;2.30;;
5014;SDS011;2526;51.060;4.228;2023-06-05T15:16:02;5.85;;;2.17;;
5014;SDS011;2526;51.060;4.228;2023-06-05T15:18:28;2.47;;;1.25;;
5014;SDS011;2526;51.060;4.228;2023-06-05T15:20:53;2.88;;;1.40;;
5014;SDS011;2526;51.060;4.228;2023-06-05T15:23:19;5.10;;;1.35;;
5014;SDS011;2526;51.060;4.228;2023-06-05T15:25:44;3.72;;;1.70;;
5014;SDS011;2526;51.060;4.228;2023-06-05T15:28:10;3.88;;;1.20;;
5014;SDS011;2526;51.060;4.228;2023-06-05T15:30:36;3.42;;;1.70;;
5014;SDS011;2526;51.060;4.228;2023-06-05T15:33:02;7.90;;;1.80;;
5014;SDS011;2526;51.060;4.228;2023-06-05T15:35:28;3.67;;;1.83;;
5014;SDS011;2526;51.060;4.228;2023-06-05T15:37:53;3.42;;;1.55;;
5014;SDS011;2526;51.060;4.228;2023-06-05T15:40:19;2.70;;;1.85;;
5014;SDS011;2526;51.060;4.228;2023-06-05T15:42:44;3.55;;;1.83;;
5014;SDS011;2526;51.060;4.228;2023-06-05T15:45:12;1.83;;;1.50;;
5014;SDS011;2526;51.060;4.228;2023-06-05T15:47:38;2.28;;;1.65;;
5014;SDS011;2526;51.060;4.228;2023-06-05T15:50:05;6.05;;;2.58;;
5014;SDS011;2526;51.060;4.228;2023-06-05T15:52:31;10.40;;;2.15;;